Old Mystic, Connecticut
Current Conditions -  °F | °C
As of 9:49 PM on Wednesday 22 Oct 2014 (Local Time) from KGON Reporting Station
Light Rain Light Rain  
Wind Chill: 53°   Ceiling: 1900
Heat Index: 53°   Visibility: 10mi
Dew Point: 50°   Wind: 25mph
Humidity: 89%   Direction: 30°NNE
Pressure: 29.68"   Gusts: 37mph
Location:  41.39°N, 71.96°W
Report Text: KGON 230149Z 03022G32KT 10SM -RA SCT012 BKN019 OVC035 12/10 A2968 RMK AO2 PK WND 02035/0104 WSHFT 0119 LTG DSNT SE AND SW P0007 T01170100
Loading
Personal Weather Stations






























Interactive Weather Map
Tropical Storm Tracking
New forecast layout! Learn more

10-Day Weather Forecast

Advertisements
Track Severe Weather on mobile